Flight Track Log - Related Links

Times and Time Zones

All times are in EDT time to prevent confusion due to time zone crossing. See the UAL5911 flight status page for this flight to view local times or setup timezone preferences in your user account.

Time Position Orientation Groundspeed Altitude Reporting Facility
EDT Latitude Longitude Course Direction KTS MPH feet Rate Location/Type
Thu 03:51:12 PM 41.9500 -87.9833 242° Southwest 202 232 3,700  Level Chicago TRACON
Thu 03:52:12 PM 41.9167 -88.0667 242° Southwest 232 267 5,000 1,250 Climbing Chicago TRACON
Thu 03:53:12 PM 41.9167 -88.1667 270° West 234 269 6,200 1,832 Climbing Chicago TRACON
Thu 03:54:23 PM 41.9228 -88.2425 276° West 237 273 9,000 1,773 Climbing Chicago Center
Thu 03:55:24 PM 41.9250 -88.3475 272° West 235 270 10,100 537 Climbing Chicago Center
Thu 03:56:26 PM 41.9278 -88.4392 272° West 243 280 10,100 -49 Level Chicago Center
Thu 03:57:27 PM 41.9319 -88.5356 273° West 258 297 10,000 -49 Descending Chicago Center
Thu 03:58:29 PM 41.9364 -88.6339 274° West 265 305 10,000  Level Chicago Center
Thu 03:59:31 PM 41.9411 -88.7383 267° West 279 321 10,000  Level Chicago Center
Thu 04:00:32 PM 41.9472 -88.8678 274° West 290 334 10,000 49 Level Chicago Center
Thu 04:01:34 PM 41.9042 -88.9486 234° Southwest 285 328 10,100 48 Climbing Chicago Center
Thu 04:02:36 PM 41.8381 -88.9892 205° Southwest 265 305 10,100 -49 Level Chicago Center
Thu 04:03:37 PM 41.7703 -89.0303 204° Southwest 270 311 10,000 -49 Descending Chicago Center
Thu 04:04:39 PM 41.7019 -89.0717 204° Southwest 271 312 10,000  Level Chicago Center
Thu 04:05:41 PM 41.6383 -89.1094 204° Southwest 256 295 10,000  Level Chicago Center
Thu 04:06:42 PM 41.5417 -89.1692 205° Southwest 321 369 10,000  Level Chicago Center
Thu 04:07:44 PM 41.4692 -89.2131 204° Southwest 323 372 10,000  Level Chicago Center
Thu 04:08:46 PM 41.3869 -89.2611 204° Southwest 322 371 10,000  Level Chicago Center
Thu 04:09:48 PM 41.3042 -89.3119 205° Southwest 326 375 10,000  Level Chicago Center
Thu 04:10:50 PM 41.2153 -89.3803 210° Southwest 309 356 10,000 -439 Level Chicago Center
Thu 04:11:51 PM 41.1603 -89.4364 218° Southwest 263 303 9,100 -976 Descending Chicago Center
Thu 04:12:53 PM 41.1064 -89.4886 216° Southwest 246 283 8,000 -1,161 Descending Chicago Center
Thu 04:13:55 PM 41.0558 -89.5408 218° Southwest 235 270 6,700 -1,171 Descending Chicago Center
Thu 04:14:56 PM 41.0094 -89.5931 220° Southwest 224 258 5,600 -1,073 Descending Chicago Center
Thu 04:15:58 PM 40.9617 -89.6447 219° Southwest 223 257 4,500 -774 Descending Chicago Center
Thu 04:17:00 PM 40.9175 -89.6956 221° Southwest 215 247 4,000 -387 Descending Chicago Center
Thu 04:18:02 PM 40.8647 -89.7572 221° Southwest 212 244 3,700 -585 Descending Chicago Center
Thu 04:19:03 PM 40.8228 -89.8094 223° Southwest 212 244 2,800 -585 Descending Chicago Center
Thu 04:20:05 PM 40.7892 -89.8558 226° Southwest 195 224 2,500 -145 Descending Chicago Center
Thu 04:21:07 PM 40.7469 -89.8364 161° South 178 205 2,500 -97 Level Chicago Center
Thu 04:22:09 PM 40.7217 -89.7972 130° Southeast 151 174 2,300 -194 Descending Chicago Center

Login

Don't have an account? Register now (free) for customized features, flight alerts, and more!